sensor_id;sensor_type;location;lat;lon;timestamp;temperature;humidity
56298;DHT22;42208;6.376;-10.782;2023-03-01T00:02:25;27.10;99.90
56298;DHT22;42208;6.376;-10.782;2023-03-01T00:04:54;27.10;99.90
56298;DHT22;42208;6.376;-10.782;2023-03-01T00:07:22;27.00;99.90
56298;DHT22;42208;6.376;-10.782;2023-03-01T00:09:50;27.10;99.90
56298;DHT22;42208;6.376;-10.782;2023-03-01T00:12:18;27.10;99.90
56298;DHT22;42208;6.376;-10.782;2023-03-01T00:14:47;27.00;99.90
56298;DHT22;42208;6.376;-10.782;2023-03-01T00:17:15;27.00;99.90
56298;DHT22;42208;6.376;-10.782;2023-03-01T00:19:43;27.10;99.90
56298;DHT22;42208;6.376;-10.782;2023-03-01T00:22:12;27.00;99.90
56298;DHT22;42208;6.376;-10.782;2023-03-01T00:24:40;27.10;99.90
56298;DHT22;42208;6.376;-10.782;2023-03-01T00:27:08;27.00;99.90
56298;DHT22;42208;6.376;-10.782;2023-03-01T00:29:36;27.00;99.90
56298;DHT22;42208;6.376;-10.782;2023-03-01T00:32:05;27.00;99.90
56298;DHT22;42208;6.376;-10.782;2023-03-01T00:34:33;27.00;99.90
56298;DHT22;42208;6.376;-10.782;2023-03-01T00:37:02;27.00;99.90
56298;DHT22;42208;6.376;-10.782;2023-03-01T00:39:30;27.00;99.90
56298;DHT22;42208;6.376;-10.782;2023-03-01T00:41:59;27.00;99.90
56298;DHT22;42208;6.376;-10.782;2023-03-01T00:44:27;27.00;99.90
56298;DHT22;42208;6.376;-10.782;2023-03-01T00:46:56;27.00;99.90
56298;DHT22;42208;6.376;-10.782;2023-03-01T00:49:24;27.00;99.90
56298;DHT22;42208;6.376;-10.782;2023-03-01T00:51:53;27.00;99.90
56298;DHT22;42208;6.376;-10.782;2023-03-01T00:54:23;27.00;99.90
56298;DHT22;42208;6.376;-10.782;2023-03-01T00:56:51;26.90;99.90
56298;DHT22;42208;6.376;-10.782;2023-03-01T00:59:20;26.90;99.90
56298;DHT22;42208;6.376;-10.782;2023-03-01T01:01:48;26.90;99.90
56298;DHT22;42208;6.376;-10.782;2023-03-01T01:04:16;26.90;99.90
56298;DHT22;42208;6.376;-10.782;2023-03-01T01:06:46;26.90;99.90
56298;DHT22;42208;6.376;-10.782;2023-03-01T01:09:16;26.80;99.90
56298;DHT22;42208;6.376;-10.782;2023-03-01T01:11:47;26.80;99.90
56298;DHT22;42208;6.376;-10.782;2023-03-01T01:14:16;26.80;99.90
56298;DHT22;42208;6.376;-10.782;2023-03-01T01:16:44;26.80;99.90
56298;DHT22;42208;6.376;-10.782;2023-03-01T01:19:13;26.80;99.90
56298;DHT22;42208;6.376;-10.782;2023-03-01T01:21:42;26.70;99.90
56298;DHT22;42208;6.376;-10.782;2023-03-01T01:24:10;26.70;99.90
56298;DHT22;42208;6.376;-10.782;2023-03-01T01:26:39;26.70;99.90
56298;DHT22;42208;6.376;-10.782;2023-03-01T01:29:08;26.70;99.90
56298;DHT22;42208;6.376;-10.782;2023-03-01T01:31:38;26.70;99.90
56298;DHT22;42208;6.376;-10.782;2023-03-01T01:34:09;26.60;99.90
56298;DHT22;42208;6.376;-10.782;2023-03-01T01:36:40;26.60;99.90
56298;DHT22;42208;6.376;-10.782;2023-03-01T01:39:09;26.60;99.90
56298;DHT22;42208;6.376;-10.782;2023-03-01T01:41:37;26.50;99.90
56298;DHT22;42208;6.376;-10.782;2023-03-01T01:44:26;26.50;99.90
56298;DHT22;42208;6.376;-10.782;2023-03-01T01:47:02;26.60;99.90
56298;DHT22;42208;6.376;-10.782;2023-03-01T01:52:18;26.50;99.90
56298;DHT22;42208;6.376;-10.782;2023-03-01T01:55:05;26.50;99.90
56298;DHT22;42208;6.376;-10.782;2023-03-01T01:57:41;26.40;99.90
56298;DHT22;42208;6.376;-10.782;2023-03-01T02:00:18;26.40;99.90
56298;DHT22;42208;6.376;-10.782;2023-03-01T02:02:48;26.40;99.90
56298;DHT22;42208;6.376;-10.782;2023-03-01T02:08:26;26.40;99.90
56298;DHT22;42208;6.376;-10.782;2023-03-01T02:10:56;26.40;99.90
56298;DHT22;42208;6.376;-10.782;2023-03-01T02:13:25;26.40;99.90
56298;DHT22;42208;6.376;-10.782;2023-03-01T02:15:54;26.40;99.90
56298;DHT22;42208;6.376;-10.782;2023-03-01T02:18:23;26.40;99.90
56298;DHT22;42208;6.376;-10.782;2023-03-01T02:23:44;26.40;99.90
56298;DHT22;42208;6.376;-10.782;2023-03-01T02:26:20;26.40;99.90
56298;DHT22;42208;6.376;-10.782;2023-03-01T02:28:51;26.40;99.90
56298;DHT22;42208;6.376;-10.782;2023-03-01T02:31:21;26.40;99.90
56298;DHT22;42208;6.376;-10.782;2023-03-01T02:33:49;26.40;99.90
56298;DHT22;42208;6.376;-10.782;2023-03-01T02:36:24;26.40;99.90
56298;DHT22;42208;6.376;-10.782;2023-03-01T02:38:57;26.40;99.90
56298;DHT22;42208;6.376;-10.782;2023-03-01T02:41:28;26.40;99.90
56298;DHT22;42208;6.376;-10.782;2023-03-01T02:43:58;26.40;99.90
56298;DHT22;42208;6.376;-10.782;2023-03-01T02:46:27;26.40;99.90
56298;DHT22;42208;6.376;-10.782;2023-03-01T02:48:57;26.40;99.90
56298;DHT22;42208;6.376;-10.782;2023-03-01T02:56:59;26.40;99.90
56298;DHT22;42208;6.376;-10.782;2023-03-01T02:59:33;26.40;99.90
56298;DHT22;42208;6.376;-10.782;2023-03-01T03:02:02;26.40;99.90
56298;DHT22;42208;6.376;-10.782;2023-03-01T03:04:31;26.40;99.90
56298;DHT22;42208;6.376;-10.782;2023-03-01T03:06:59;26.40;99.90
56298;DHT22;42208;6.376;-10.782;2023-03-01T03:09:27;26.40;99.90
56298;DHT22;42208;6.376;-10.782;2023-03-01T03:11:56;26.40;99.90
56298;DHT22;42208;6.376;-10.782;2023-03-01T03:14:25;26.40;99.90
56298;DHT22;42208;6.376;-10.782;2023-03-01T03:16:53;26.30;99.90
56298;DHT22;42208;6.376;-10.782;2023-03-01T03:19:21;26.30;99.90
56298;DHT22;42208;6.376;-10.782;2023-03-01T03:21:50;26.30;99.90
56298;DHT22;42208;6.376;-10.782;2023-03-01T03:24:18;26.30;99.90
56298;DHT22;42208;6.376;-10.782;2023-03-01T03:26:46;26.30;99.90
56298;DHT22;42208;6.376;-10.782;2023-03-01T03:29:15;26.30;99.90
56298;DHT22;42208;6.376;-10.782;2023-03-01T03:31:43;26.30;99.90
56298;DHT22;42208;6.376;-10.782;2023-03-01T03:34:11;26.30;99.90
56298;DHT22;42208;6.376;-10.782;2023-03-01T03:36:39;26.30;99.90
56298;DHT22;42208;6.376;-10.782;2023-03-01T03:39:08;26.30;99.90
56298;DHT22;42208;6.376;-10.782;2023-03-01T03:41:36;26.20;99.90
56298;DHT22;42208;6.376;-10.782;2023-03-01T03:44:04;26.20;99.90
56298;DHT22;42208;6.376;-10.782;2023-03-01T03:46:32;26.10;99.90
56298;DHT22;42208;6.376;-10.782;2023-03-01T03:49:01;26.00;99.90
56298;DHT22;42208;6.376;-10.782;2023-03-01T03:51:29;26.00;99.90
56298;DHT22;42208;6.376;-10.782;2023-03-01T03:53:57;26.00;99.90
56298;DHT22;42208;6.376;-10.782;2023-03-01T03:56:25;26.00;99.90
56298;DHT22;42208;6.376;-10.782;2023-03-01T03:58:55;26.00;99.90
56298;DHT22;42208;6.376;-10.782;2023-03-01T04:01:23;26.00;99.90
56298;DHT22;42208;6.376;-10.782;2023-03-01T04:03:51;26.00;99.90
56298;DHT22;42208;6.376;-10.782;2023-03-01T04:06:20;25.90;99.90
56298;DHT22;42208;6.376;-10.782;2023-03-01T04:08:48;25.90;99.90
56298;DHT22;42208;6.376;-10.782;2023-03-01T04:11:16;25.90;99.90
56298;DHT22;42208;6.376;-10.782;2023-03-01T04:13:44;25.90;99.90
56298;DHT22;42208;6.376;-10.782;2023-03-01T04:16:13;25.90;99.90
56298;DHT22;42208;6.376;-10.782;2023-03-01T04:18:41;25.80;99.90
56298;DHT22;42208;6.376;-10.782;2023-03-01T04:21:09;25.80;99.90
56298;DHT22;42208;6.376;-10.782;2023-03-01T04:23:38;25.80;99.90
56298;DHT22;42208;6.376;-10.782;2023-03-01T04:26:07;25.80;99.90
56298;DHT22;42208;6.376;-10.782;2023-03-01T04:28:38;25.80;99.90
56298;DHT22;42208;6.376;-10.782;2023-03-01T04:31:10;25.80;99.90
56298;DHT22;42208;6.376;-10.782;2023-03-01T04:33:48;25.80;99.90
56298;DHT22;42208;6.376;-10.782;2023-03-01T04:36:18;25.80;99.90
56298;DHT22;42208;6.376;-10.782;2023-03-01T04:38:46;25.80;99.90
56298;DHT22;42208;6.376;-10.782;2023-03-01T04:41:17;25.80;99.90
56298;DHT22;42208;6.376;-10.782;2023-03-01T04:43:46;25.80;99.90
56298;DHT22;42208;6.376;-10.782;2023-03-01T04:46:17;25.80;99.90
56298;DHT22;42208;6.376;-10.782;2023-03-01T04:48:46;25.80;99.90
56298;DHT22;42208;6.376;-10.782;2023-03-01T04:51:15;25.70;99.90
56298;DHT22;42208;6.376;-10.782;2023-03-01T04:53:43;25.70;99.90
56298;DHT22;42208;6.376;-10.782;2023-03-01T04:56:13;25.70;99.90
56298;DHT22;42208;6.376;-10.782;2023-03-01T04:58:42;25.70;99.90
56298;DHT22;42208;6.376;-10.782;2023-03-01T05:01:15;25.70;99.90
56298;DHT22;42208;6.376;-10.782;2023-03-01T05:03:45;25.70;99.90
56298;DHT22;42208;6.376;-10.782;2023-03-01T05:06:14;25.80;99.90
56298;DHT22;42208;6.376;-10.782;2023-03-01T05:08:43;25.80;99.90
56298;DHT22;42208;6.376;-10.782;2023-03-01T05:11:12;25.80;99.90
56298;DHT22;42208;6.376;-10.782;2023-03-01T05:13:40;25.80;99.90
56298;DHT22;42208;6.376;-10.782;2023-03-01T05:16:09;25.70;99.90
56298;DHT22;42208;6.376;-10.782;2023-03-01T05:18:41;25.70;99.90
56298;DHT22;42208;6.376;-10.782;2023-03-01T05:21:12;25.70;99.90
56298;DHT22;42208;6.376;-10.782;2023-03-01T05:23:40;25.70;99.90
56298;DHT22;42208;6.376;-10.782;2023-03-01T05:26:09;25.70;99.90
56298;DHT22;42208;6.376;-10.782;2023-03-01T05:28:54;25.70;99.90
56298;DHT22;42208;6.376;-10.782;2023-03-01T05:31:22;25.70;99.90
56298;DHT22;42208;6.376;-10.782;2023-03-01T05:33:51;25.70;99.90
56298;DHT22;42208;6.376;-10.782;2023-03-01T05:36:20;25.70;99.90
56298;DHT22;42208;6.376;-10.782;2023-03-01T05:38:48;25.70;99.90
56298;DHT22;42208;6.376;-10.782;2023-03-01T05:41:16;25.70;99.90
56298;DHT22;42208;6.376;-10.782;2023-03-01T05:43:45;25.70;99.90
56298;DHT22;42208;6.376;-10.782;2023-03-01T05:46:13;25.70;99.90
56298;DHT22;42208;6.376;-10.782;2023-03-01T05:48:41;25.80;99.90
56298;DHT22;42208;6.376;-10.782;2023-03-01T05:51:09;25.80;99.90
56298;DHT22;42208;6.376;-10.782;2023-03-01T05:53:38;25.80;99.90
56298;DHT22;42208;6.376;-10.782;2023-03-01T05:56:06;25.80;99.90
56298;DHT22;42208;6.376;-10.782;2023-03-01T05:58:34;25.80;99.90
56298;DHT22;42208;6.376;-10.782;2023-03-01T06:01:03;25.80;99.90
56298;DHT22;42208;6.376;-10.782;2023-03-01T06:03:31;25.80;99.90
56298;DHT22;42208;6.376;-10.782;2023-03-01T06:05:59;25.80;99.90
56298;DHT22;42208;6.376;-10.782;2023-03-01T06:08:28;25.80;99.90
56298;DHT22;42208;6.376;-10.782;2023-03-01T06:10:56;25.80;99.90
56298;DHT22;42208;6.376;-10.782;2023-03-01T06:13:26;25.80;99.90
56298;DHT22;42208;6.376;-10.782;2023-03-01T06:15:54;25.80;99.90
56298;DHT22;42208;6.376;-10.782;2023-03-01T06:18:23;25.80;99.90
56298;DHT22;42208;6.376;-10.782;2023-03-01T06:20:55;25.80;99.90
56298;DHT22;42208;6.376;-10.782;2023-03-01T06:23:24;25.80;99.90
56298;DHT22;42208;6.376;-10.782;2023-03-01T06:25:53;25.80;99.90
56298;DHT22;42208;6.376;-10.782;2023-03-01T06:28:21;25.80;99.90
56298;DHT22;42208;6.376;-10.782;2023-03-01T06:30:50;25.80;99.90
56298;DHT22;42208;6.376;-10.782;2023-03-01T06:33:19;25.80;99.90
56298;DHT22;42208;6.376;-10.782;2023-03-01T06:35:47;25.70;99.90
56298;DHT22;42208;6.376;-10.782;2023-03-01T06:38:16;25.70;99.90
56298;DHT22;42208;6.376;-10.782;2023-03-01T06:40:45;25.70;99.90
56298;DHT22;42208;6.376;-10.782;2023-03-01T06:43:13;25.70;99.90
56298;DHT22;42208;6.376;-10.782;2023-03-01T06:45:41;25.60;99.90
56298;DHT22;42208;6.376;-10.782;2023-03-01T06:48:10;25.70;99.90
56298;DHT22;42208;6.376;-10.782;2023-03-01T06:50:38;25.70;99.90
56298;DHT22;42208;6.376;-10.782;2023-03-01T06:53:06;25.60;99.90
56298;DHT22;42208;6.376;-10.782;2023-03-01T06:55:35;25.70;99.90
56298;DHT22;42208;6.376;-10.782;2023-03-01T06:58:03;25.70;99.90
56298;DHT22;42208;6.376;-10.782;2023-03-01T07:00:32;25.60;99.90
56298;DHT22;42208;6.376;-10.782;2023-03-01T07:03:01;25.60;99.90
56298;DHT22;42208;6.376;-10.782;2023-03-01T07:05:30;25.60;99.90
56298;DHT22;42208;6.376;-10.782;2023-03-01T07:07:58;25.60;99.90
56298;DHT22;42208;6.376;-10.782;2023-03-01T07:10:27;25.60;99.90
56298;DHT22;42208;6.376;-10.782;2023-03-01T07:12:56;25.60;99.90
56298;DHT22;42208;6.376;-10.782;2023-03-01T07:15:27;25.60;99.90
56298;DHT22;42208;6.376;-10.782;2023-03-01T07:17:56;25.60;99.90
56298;DHT22;42208;6.376;-10.782;2023-03-01T07:20:24;25.60;99.90
56298;DHT22;42208;6.376;-10.782;2023-03-01T07:22:54;25.60;99.90
56298;DHT22;42208;6.376;-10.782;2023-03-01T07:25:24;25.70;99.90
56298;DHT22;42208;6.376;-10.782;2023-03-01T07:27:52;25.70;99.90
56298;DHT22;42208;6.376;-10.782;2023-03-01T07:30:21;25.60;99.90
56298;DHT22;42208;6.376;-10.782;2023-03-01T07:32:50;25.60;99.90
56298;DHT22;42208;6.376;-10.782;2023-03-01T07:35:21;25.60;99.90
56298;DHT22;42208;6.376;-10.782;2023-03-01T07:37:50;25.60;99.90
56298;DHT22;42208;6.376;-10.782;2023-03-01T07:40:19;25.60;99.90
56298;DHT22;42208;6.376;-10.782;2023-03-01T07:42:47;25.70;99.90
56298;DHT22;42208;6.376;-10.782;2023-03-01T07:45:15;25.70;99.90
56298;DHT22;42208;6.376;-10.782;2023-03-01T07:47:44;25.70;99.90
56298;DHT22;42208;6.376;-10.782;2023-03-01T07:50:12;25.70;99.90
56298;DHT22;42208;6.376;-10.782;2023-03-01T07:52:40;25.70;99.90
56298;DHT22;42208;6.376;-10.782;2023-03-01T07:55:09;25.70;99.90
56298;DHT22;42208;6.376;-10.782;2023-03-01T07:57:37;25.80;99.90
56298;DHT22;42208;6.376;-10.782;2023-03-01T08:00:07;25.80;99.90
56298;DHT22;42208;6.376;-10.782;2023-03-01T08:02:39;25.90;99.90
56298;DHT22;42208;6.376;-10.782;2023-03-01T08:05:08;25.90;99.90
56298;DHT22;42208;6.376;-10.782;2023-03-01T08:07:37;25.90;99.90
56298;DHT22;42208;6.376;-10.782;2023-03-01T08:10:05;25.90;99.90
56298;DHT22;42208;6.376;-10.782;2023-03-01T08:12:33;26.00;99.90
56298;DHT22;42208;6.376;-10.782;2023-03-01T08:15:02;26.00;99.90
56298;DHT22;42208;6.376;-10.782;2023-03-01T08:17:30;26.10;99.90
56298;DHT22;42208;6.376;-10.782;2023-03-01T08:19:58;26.10;99.90
56298;DHT22;42208;6.376;-10.782;2023-03-01T08:22:27;26.20;99.90
56298;DHT22;42208;6.376;-10.782;2023-03-01T08:24:55;26.30;99.90
56298;DHT22;42208;6.376;-10.782;2023-03-01T08:27:23;26.30;99.90
56298;DHT22;42208;6.376;-10.782;2023-03-01T08:29:52;26.30;99.90
56298;DHT22;42208;6.376;-10.782;2023-03-01T08:32:20;26.30;99.90
56298;DHT22;42208;6.376;-10.782;2023-03-01T08:34:49;26.40;99.90
56298;DHT22;42208;6.376;-10.782;2023-03-01T08:37:17;26.40;99.90
56298;DHT22;42208;6.376;-10.782;2023-03-01T08:39:46;26.50;99.90
56298;DHT22;42208;6.376;-10.782;2023-03-01T08:42:14;26.60;99.90
56298;DHT22;42208;6.376;-10.782;2023-03-01T08:44:42;26.60;99.90
56298;DHT22;42208;6.376;-10.782;2023-03-01T08:47:14;26.70;99.90
56298;DHT22;42208;6.376;-10.782;2023-03-01T08:49:42;26.70;99.90
56298;DHT22;42208;6.376;-10.782;2023-03-01T08:52:10;26.80;99.90
56298;DHT22;42208;6.376;-10.782;2023-03-01T08:54:38;26.90;99.90
56298;DHT22;42208;6.376;-10.782;2023-03-01T08:57:07;26.90;99.90
56298;DHT22;42208;6.376;-10.782;2023-03-01T08:59:35;26.90;99.90
56298;DHT22;42208;6.376;-10.782;2023-03-01T09:02:05;27.00;99.90
56298;DHT22;42208;6.376;-10.782;2023-03-01T09:04:34;27.10;99.90
56298;DHT22;42208;6.376;-10.782;2023-03-01T09:07:02;27.10;99.90
56298;DHT22;42208;6.376;-10.782;2023-03-01T09:09:30;27.10;99.90
56298;DHT22;42208;6.376;-10.782;2023-03-01T09:11:58;27.10;99.90
56298;DHT22;42208;6.376;-10.782;2023-03-01T09:14:27;27.20;99.90
56298;DHT22;42208;6.376;-10.782;2023-03-01T09:16:55;27.20;99.90
56298;DHT22;42208;6.376;-10.782;2023-03-01T09:19:24;27.20;99.90
56298;DHT22;42208;6.376;-10.782;2023-03-01T09:21:53;27.30;99.90
56298;DHT22;42208;6.376;-10.782;2023-03-01T09:24:23;27.40;99.90
56298;DHT22;42208;6.376;-10.782;2023-03-01T09:26:55;27.50;99.90
56298;DHT22;42208;6.376;-10.782;2023-03-01T09:29:24;27.50;99.90
56298;DHT22;42208;6.376;-10.782;2023-03-01T09:31:52;27.70;99.90
56298;DHT22;42208;6.376;-10.782;2023-03-01T09:34:21;27.70;99.90
56298;DHT22;42208;6.376;-10.782;2023-03-01T09:36:50;27.70;99.90
56298;DHT22;42208;6.376;-10.782;2023-03-01T09:39:19;27.70;99.90
56298;DHT22;42208;6.376;-10.782;2023-03-01T09:41:58;27.80;99.90
56298;DHT22;42208;6.376;-10.782;2023-03-01T09:47:04;27.90;99.90
56298;DHT22;42208;6.376;-10.782;2023-03-01T09:49:38;28.00;99.90
56298;DHT22;42208;6.376;-10.782;2023-03-01T09:52:40;28.00;99.90
56298;DHT22;42208;6.376;-10.782;2023-03-01T09:55:25;28.10;99.90
56298;DHT22;42208;6.376;-10.782;2023-03-01T09:58:06;28.10;99.90
56298;DHT22;42208;6.376;-10.782;2023-03-01T10:00:50;28.20;99.90
56298;DHT22;42208;6.376;-10.782;2023-03-01T10:03:28;28.20;99.90
56298;DHT22;42208;6.376;-10.782;2023-03-01T10:06:16;28.30;99.90
56298;DHT22;42208;6.376;-10.782;2023-03-01T10:09:10;28.30;99.90
56298;DHT22;42208;6.376;-10.782;2023-03-01T10:11:52;28.30;99.90
56298;DHT22;42208;6.376;-10.782;2023-03-01T10:19:40;28.40;99.90
56298;DHT22;42208;6.376;-10.782;2023-03-01T10:22:19;28.40;99.90
56298;DHT22;42208;6.376;-10.782;2023-03-01T10:24:48;28.30;99.90
56298;DHT22;42208;6.376;-10.782;2023-03-01T10:27:24;28.40;99.90
56298;DHT22;42208;6.376;-10.782;2023-03-01T10:30:20;28.40;99.90
56298;DHT22;42208;6.376;-10.782;2023-03-01T10:32:51;28.30;99.90
56298;DHT22;42208;6.376;-10.782;2023-03-01T10:35:28;28.40;99.90
56298;DHT22;42208;6.376;-10.782;2023-03-01T10:38:08;28.30;99.90
56298;DHT22;42208;6.376;-10.782;2023-03-01T10:40:56;28.40;99.90
56298;DHT22;42208;6.376;-10.782;2023-03-01T10:43:47;28.40;99.90
56298;DHT22;42208;6.376;-10.782;2023-03-01T10:46:24;28.40;99.90
56298;DHT22;42208;6.376;-10.782;2023-03-01T10:51:45;28.60;99.90
56298;DHT22;42208;6.376;-10.782;2023-03-01T10:54:18;28.60;99.90
56298;DHT22;42208;6.376;-10.782;2023-03-01T10:56:57;28.70;99.90
56298;DHT22;42208;6.376;-10.782;2023-03-01T10:59:29;28.80;99.90
56298;DHT22;42208;6.376;-10.782;2023-03-01T11:05:00;28.90;99.90
56298;DHT22;42208;6.376;-10.782;2023-03-01T11:07:29;28.90;99.90
56298;DHT22;42208;6.376;-10.782;2023-03-01T11:09:59;28.90;99.90
56298;DHT22;42208;6.376;-10.782;2023-03-01T11:12:27;29.10;99.90
56298;DHT22;42208;6.376;-10.782;2023-03-01T11:14:57;29.00;99.90
56298;DHT22;42208;6.376;-10.782;2023-03-01T11:17:29;29.10;99.90
56298;DHT22;42208;6.376;-10.782;2023-03-01T11:20:27;29.10;99.90
56298;DHT22;42208;6.376;-10.782;2023-03-01T11:23:04;29.20;99.90
56298;DHT22;42208;6.376;-10.782;2023-03-01T11:25:37;29.20;99.90
56298;DHT22;42208;6.376;-10.782;2023-03-01T11:28:10;29.20;99.90
56298;DHT22;42208;6.376;-10.782;2023-03-01T11:38:55;29.10;99.90
56298;DHT22;42208;6.376;-10.782;2023-03-01T11:41:31;29.20;99.90
56298;DHT22;42208;6.376;-10.782;2023-03-01T11:44:24;29.20;99.90
56298;DHT22;42208;6.376;-10.782;2023-03-01T11:50:04;29.40;99.90
56298;DHT22;42208;6.376;-10.782;2023-03-01T11:55:58;29.40;99.90
56298;DHT22;42208;6.376;-10.782;2023-03-01T11:58:43;29.50;99.90
56298;DHT22;42208;6.376;-10.782;2023-03-01T12:06:56;29.20;99.90
56298;DHT22;42208;6.376;-10.782;2023-03-01T12:09:36;29.30;99.90
56298;DHT22;42208;6.376;-10.782;2023-03-01T12:17:50;29.50;99.90
56298;DHT22;42208;6.376;-10.782;2023-03-01T12:23:41;29.40;99.90
56298;DHT22;42208;6.376;-10.782;2023-03-01T12:26:27;29.40;99.90
56298;DHT22;42208;6.376;-10.782;2023-03-01T12:32:08;29.20;99.90
56298;DHT22;42208;6.376;-10.782;2023-03-01T12:49:24;29.10;99.90
56298;DHT22;42208;6.376;-10.782;2023-03-01T12:52:03;29.10;99.90
56298;DHT22;42208;6.376;-10.782;2023-03-01T12:54:36;29.10;99.90
56298;DHT22;42208;6.376;-10.782;2023-03-01T12:57:37;29.20;99.90
56298;DHT22;42208;6.376;-10.782;2023-03-01T13:03:00;29.30;99.90
56298;DHT22;42208;6.376;-10.782;2023-03-01T13:10:50;29.40;99.90
56298;DHT22;42208;6.376;-10.782;2023-03-01T13:13:22;29.30;99.90
56298;DHT22;42208;6.376;-10.782;2023-03-01T13:15:52;29.30;99.90
56298;DHT22;42208;6.376;-10.782;2023-03-01T13:20:56;29.40;99.90
56298;DHT22;42208;6.376;-10.782;2023-03-01T13:23:30;29.40;99.90
56298;DHT22;42208;6.376;-10.782;2023-03-01T13:34:01;29.40;99.90
56298;DHT22;42208;6.376;-10.782;2023-03-01T13:39:01;29.40;99.90
56298;DHT22;42208;6.376;-10.782;2023-03-01T13:46:52;29.40;99.90
56298;DHT22;42208;6.376;-10.782;2023-03-01T13:49:25;29.50;99.90
56298;DHT22;42208;6.376;-10.782;2023-03-01T13:52:02;29.50;99.90
56298;DHT22;42208;6.376;-10.782;2023-03-01T13:54:32;29.60;99.90
56298;DHT22;42208;6.376;-10.782;2023-03-01T13:57:01;29.60;99.90
56298;DHT22;42208;6.376;-10.782;2023-03-01T13:59:30;29.60;99.90
56298;DHT22;42208;6.376;-10.782;2023-03-01T14:02:01;29.60;99.90
56298;DHT22;42208;6.376;-10.782;2023-03-01T14:04:31;29.50;99.90
56298;DHT22;42208;6.376;-10.782;2023-03-01T14:07:11;29.50;99.90
56298;DHT22;42208;6.376;-10.782;2023-03-01T14:09:43;29.70;99.90
56298;DHT22;42208;6.376;-10.782;2023-03-01T14:15:29;29.70;99.90
56298;DHT22;42208;6.376;-10.782;2023-03-01T14:20:40;29.90;99.90
56298;DHT22;42208;6.376;-10.782;2023-03-01T14:23:15;30.00;99.90
56298;DHT22;42208;6.376;-10.782;2023-03-01T14:25:50;29.90;99.90
56298;DHT22;42208;6.376;-10.782;2023-03-01T14:28:24;29.90;99.90
56298;DHT22;42208;6.376;-10.782;2023-03-01T14:30:55;29.90;99.90
56298;DHT22;42208;6.376;-10.782;2023-03-01T14:33:27;29.80;99.90
56298;DHT22;42208;6.376;-10.782;2023-03-01T14:36:05;29.90;99.90
56298;DHT22;42208;6.376;-10.782;2023-03-01T14:38:43;30.00;99.90
56298;DHT22;42208;6.376;-10.782;2023-03-01T14:41:17;30.10;99.90
56298;DHT22;42208;6.376;-10.782;2023-03-01T14:43:57;29.90;99.90
56298;DHT22;42208;6.376;-10.782;2023-03-01T14:49:19;29.80;99.90
56298;DHT22;42208;6.376;-10.782;2023-03-01T14:52:17;29.90;99.90
56298;DHT22;42208;6.376;-10.782;2023-03-01T14:54:51;30.10;99.90
56298;DHT22;42208;6.376;-10.782;2023-03-01T14:57:23;30.00;99.90
56298;DHT22;42208;6.376;-10.782;2023-03-01T14:59:55;30.00;99.90
56298;DHT22;42208;6.376;-10.782;2023-03-01T15:02:25;30.20;99.90
56298;DHT22;42208;6.376;-10.782;2023-03-01T15:05:02;30.10;99.90
56298;DHT22;42208;6.376;-10.782;2023-03-01T15:07:41;29.90;99.90
56298;DHT22;42208;6.376;-10.782;2023-03-01T15:10:21;30.10;99.90
56298;DHT22;42208;6.376;-10.782;2023-03-01T15:12:50;30.10;99.90
56298;DHT22;42208;6.376;-10.782;2023-03-01T15:15:40;30.20;99.90
56298;DHT22;42208;6.376;-10.782;2023-03-01T15:18:25;30.10;99.90
56298;DHT22;42208;6.376;-10.782;2023-03-01T15:20:54;30.10;99.90
56298;DHT22;42208;6.376;-10.782;2023-03-01T15:23:26;30.10;99.90
56298;DHT22;42208;6.376;-10.782;2023-03-01T15:25:55;30.20;99.90
56298;DHT22;42208;6.376;-10.782;2023-03-01T15:28:30;30.20;99.90
56298;DHT22;42208;6.376;-10.782;2023-03-01T15:31:16;30.40;99.90
56298;DHT22;42208;6.376;-10.782;2023-03-01T15:33:46;30.30;99.90
56298;DHT22;42208;6.376;-10.782;2023-03-01T15:39:03;30.70;99.90
56298;DHT22;42208;6.376;-10.782;2023-03-01T15:41:37;30.80;99.90
56298;DHT22;42208;6.376;-10.782;2023-03-01T15:44:29;30.70;99.90
56298;DHT22;42208;6.376;-10.782;2023-03-01T15:47:25;31.00;99.90
56298;DHT22;42208;6.376;-10.782;2023-03-01T15:49:54;31.10;99.90
56298;DHT22;42208;6.376;-10.782;2023-03-01T15:52:26;31.20;99.90
56298;DHT22;42208;6.376;-10.782;2023-03-01T15:55:03;30.90;99.90
56298;DHT22;42208;6.376;-10.782;2023-03-01T15:57:32;31.10;99.90
56298;DHT22;42208;6.376;-10.782;2023-03-01T16:00:00;30.80;99.90
56298;DHT22;42208;6.376;-10.782;2023-03-01T16:02:31;30.90;99.90
56298;DHT22;42208;6.376;-10.782;2023-03-01T16:04:59;31.20;99.90
56298;DHT22;42208;6.376;-10.782;2023-03-01T16:07:29;31.30;99.90
56298;DHT22;42208;6.376;-10.782;2023-03-01T16:09:57;31.20;99.90
56298;DHT22;42208;6.376;-10.782;2023-03-01T16:12:26;31.40;99.90
56298;DHT22;42208;6.376;-10.782;2023-03-01T16:14:54;31.50;99.90
56298;DHT22;42208;6.376;-10.782;2023-03-01T16:17:22;31.70;99.90
56298;DHT22;42208;6.376;-10.782;2023-03-01T16:19:50;31.80;99.90
56298;DHT22;42208;6.376;-10.782;2023-03-01T16:22:19;31.70;99.90
56298;DHT22;42208;6.376;-10.782;2023-03-01T16:24:47;31.70;99.90
56298;DHT22;42208;6.376;-10.782;2023-03-01T16:27:16;31.80;99.90
56298;DHT22;42208;6.376;-10.782;2023-03-01T16:29:44;31.90;99.90
56298;DHT22;42208;6.376;-10.782;2023-03-01T16:32:12;32.00;99.90
56298;DHT22;42208;6.376;-10.782;2023-03-01T16:34:41;32.10;99.90
56298;DHT22;42208;6.376;-10.782;2023-03-01T16:37:09;31.90;99.90
56298;DHT22;42208;6.376;-10.782;2023-03-01T16:39:38;32.10;99.90
56298;DHT22;42208;6.376;-10.782;2023-03-01T16:42:06;32.20;99.90
56298;DHT22;42208;6.376;-10.782;2023-03-01T16:44:35;32.10;99.90
56298;DHT22;42208;6.376;-10.782;2023-03-01T16:47:03;31.70;99.90
56298;DHT22;42208;6.376;-10.782;2023-03-01T16:49:32;31.40;99.90
56298;DHT22;42208;6.376;-10.782;2023-03-01T16:52:00;31.30;99.90
56298;DHT22;42208;6.376;-10.782;2023-03-01T16:54:28;31.50;99.90
56298;DHT22;42208;6.376;-10.782;2023-03-01T16:56:57;31.40;99.90
56298;DHT22;42208;6.376;-10.782;2023-03-01T16:59:25;31.80;99.90
56298;DHT22;42208;6.376;-10.782;2023-03-01T17:01:53;32.00;99.90
56298;DHT22;42208;6.376;-10.782;2023-03-01T17:04:21;32.20;99.90
56298;DHT22;42208;6.376;-10.782;2023-03-01T17:06:50;32.30;99.90
56298;DHT22;42208;6.376;-10.782;2023-03-01T17:09:18;32.40;99.90
56298;DHT22;42208;6.376;-10.782;2023-03-01T17:11:46;32.50;99.90
56298;DHT22;42208;6.376;-10.782;2023-03-01T17:14:15;32.20;99.90
56298;DHT22;42208;6.376;-10.782;2023-03-01T17:16:44;32.00;99.90
56298;DHT22;42208;6.376;-10.782;2023-03-01T17:19:12;32.00;99.90
56298;DHT22;42208;6.376;-10.782;2023-03-01T17:21:40;32.00;99.90
56298;DHT22;42208;6.376;-10.782;2023-03-01T17:24:09;31.60;99.90
56298;DHT22;42208;6.376;-10.782;2023-03-01T17:26:38;31.50;99.90
56298;DHT22;42208;6.376;-10.782;2023-03-01T17:29:07;31.70;99.90
56298;DHT22;42208;6.376;-10.782;2023-03-01T17:31:35;31.90;99.90
56298;DHT22;42208;6.376;-10.782;2023-03-01T17:34:03;32.00;99.90